Palmhurst, Texas
Current Conditions -  °F | °C
As of 10:53 AM on Thursday 27 Nov 2014 (Local Time) from KMFE Reporting Station
Clear Clear  
Wind Chill: 21°   Ceiling: Unl
Heat Index: 21°   Visibility: 10mi
Dew Point: 11°   Wind: 7mph
Humidity: 51%   Direction: 160°SSE
Pressure: 30.44"   Gusts: NA
Location:  26.2155°N, 98.325°W
Report Text: KMFE 271653Z 16006KT 10SM CLR 21/11 A3044 RMK AO2 SLP307 T02110106
Loading
Personal Weather Stations






























Interactive Weather Map New forecast layout! Learn more

10-Day Weather Forecast

Advertisements
Track Severe Weather on mobile